Hillburn, New York
Current Conditions -  °F | °C
As of 11:53 PM on Friday 24 Oct 2014 (Local Time) from KCDW Reporting Station
Clear Clear  
Wind Chill: 54°   Ceiling: Unl
Heat Index: 54°   Visibility: 10mi
Dew Point: 37°   Wind: 0mph
Humidity: 53%   Direction: NA
Pressure: 29.86"   Gusts: NA
Location:  41.12°N, 74.17°W
Report Text: KCDW 250353Z 00000KT 10SM CLR 12/03 A2986 RMK AO2 SLP118 T01220028
Loading
Personal Weather Stations






























Interactive Weather Map
Tropical Storm Tracking
New forecast layout! Learn more

10-Day Weather Forecast

Advertisements
Track Severe Weather on mobile